Date,TemperatureHighF,TemperatureAvgF,TemperatureLowF,DewpointHighF,DewpointAvgF,DewpointLowF,HumidityHigh,HumidityAvg,HumidityLow,PressureMaxIn,PressureMinIn,WindSpeedMaxMPH,WindSpeedAvgMPH,GustSpeedMaxMPH,PrecipitationSumIn
2013-1-1,33.7,20.4,-0.5,27.0,13.4,-3.0,92,75,60,29.95,29.68,9,2,14,0.00
2013-1-2,21.4,6.0,-4.7,14.0,-0.2,-9.0,88,76,58,30.23,29.90,12,1,15,0.00
2013-1-3,12.3,-0.9,-11.5,0.0,-6.8,-15.0,87,77,52,30.25,30.00,3,0,4,0.00
2013-1-4,33.4,18.7,-2.2,27.0,13.2,-5.0,87,80,65,30.00,29.78,6,1,10,0.00
2013-1-5,34.4,28.1,14.9,27.0,18.6,12.0,87,69,49,30.24,29.80,8,2,23,0.02
2013-1-6,32.9,23.0,13.5,27.0,19.8,10.0,95,87,78,30.20,29.91,2,0,4,0.00
2013-1-7,30.6,22.5,6.2,28.0,16.5,4.0,96,79,51,30.36,29.95,6,1,12,0.00
2013-1-8,38.9,17.0,2.8,25.0,12.5,0.0,93,83,56,30.39,30.24,2,0,4,0.04
2013-1-9,43.1,23.3,9.4,33.0,19.3,8.0,93,85,58,30.45,29.98,7,1,19,0.01
2013-1-10,40.9,35.5,23.9,33.0,25.5,21.0,90,68,54,30.59,30.04,14,2,19,0.01
2013-1-11,35.1,27.8,18.7,32.0,24.9,17.0,97,89,74,30.58,30.21,2,0,3,0.14
2013-1-12,40.3,35.4,32.8,39.0,33.4,-99.9,98,96,93,30.22,30.13,1,-10,3,0.00
2013-1-13,41.3,37.0,33.6,41.0,36.6,33.0,99,98,97,30.17,29.97,1,0,2,0.02
2013-1-14,55.3,40.3,30.4,48.0,34.6,27.0,100,83,42,30.30,29.87,9,1,18,0.00
2013-1-15,35.3,29.9,25.1,29.0,25.2,22.0,95,83,62,30.36,30.27,2,0,5,0.00
2013-1-16,30.4,28.6,24.9,29.0,26.6,24.0,97,92,83,30.27,29.82,1,0,3,0.00
2013-1-17,37.5,23.6,12.9,34.0,18.4,3.0,97,81,49,30.18,29.82,6,1,12,0.01
2013-1-18,20.1,10.0,0.0,4.0,-0.6,-6.0,86,65,35,30.42,30.14,12,1,13,0.00
2013-1-19,38.7,26.1,8.4,27.0,18.5,4.0,88,74,54,30.34,29.83,6,1,10,0.04
2013-1-20,43.7,31.9,19.8,34.0,20.2,-1.0,93,64,41,29.97,29.52,10,3,28,0.10
2013-1-21,24.6,17.4,6.8,16.0,6.4,-2.0,90,64,42,30.09,29.82,4,1,11,0.00
2013-1-22,20.6,13.0,-2.0,14.0,6.3,-5.0,91,77,43,30.10,29.82,9,1,18,0.00
2013-1-23,6.7,-1.0,-10.6,-1.0,-9.8,-15.0,87,68,37,30.22,30.09,7,1,12,0.00
2013-1-24,12.5,-1.6,-16.0,-8.0,-13.5,-20.0,83,61,33,30.37,30.17,7,2,17,0.00
2013-1-25,18.2,6.3,-5.7,4.0,-5.6,-10.0,84,61,32,30.41,30.14,7,1,9,0.00
2013-1-26,17.8,9.2,0.7,6.0,-0.7,-9.0,89,68,34,30.31,30.11,11,1,15,0.00
2013-1-27,8.7,1.2,-0.9,5.0,-1.8,-4.0,90,87,83,30.48,30.31,1,0,2,0.00
2013-1-28,15.4,15.4,15.4,13.0,13.0,13.0,90,90,90,30.16,30.14,0,0,2,0.00
2013-1-30,46.9,44.3,41.1,47.0,43.8,40.0,99,98,96,29.56,29.38,2,0,3,0.35
2013-1-31,53.8,39.0,23.9,54.0,31.7,12.0,100,78,46,29.55,28.85,11,3,23,0.16
2013-2-1,25.6,21.5,15.8,18.0,9.1,6.0,78,59,49,30.11,29.56,10,3,21,0.00
2013-2-2,22.8,17.1,8.6,16.0,9.8,4.0,90,74,52,30.24,30.07,5,1,11,0.00
2013-2-3,17.3,15.2,12.9,15.0,13.0,11.0,92,91,85,30.08,30.02,2,0,5,0.00
2013-2-9,13.3,13.2,13.1,10.0,10.0,10.0,88,88,88,29.94,29.94,4,-498,10,0.00
2013-2-10,25.9,7.3,-9.5,12.0,1.5,-13.0,88,78,39,30.51,30.39,1,0,2,0.03
2013-2-11,29.5,19.6,5.0,29.0,17.1,2.0,96,90,81,30.39,29.66,2,0,3,0.00
2013-2-12,40.6,34.6,28.3,32.0,28.5,24.0,97,79,64,29.88,29.65,12,2,17,0.24
2013-2-13,38.8,30.0,19.5,26.0,21.4,17.0,91,72,48,29.88,29.77,4,0,10,0.02
2013-2-14,39.9,29.4,23.2,27.0,22.0,20.0,90,76,48,30.00,29.76,6,1,10,0.01
2013-2-15,49.1,33.0,22.4,31.0,24.6,19.0,90,74,41,29.99,29.90,8,1,20,0.00
2013-2-16,34.0,28.4,22.3,28.0,19.0,3.0,94,70,42,30.01,29.88,7,1,14,0.00
2013-2-17,21.9,16.6,12.0,7.0,3.5,1.0,68,57,48,29.87,29.59,17,4,24,0.00
2013-2-18,28.3,16.8,9.5,4.0,-0.4,-6.0,72,50,24,30.18,29.82,12,3,19,0.00
2013-2-19,40.7,24.6,8.5,31.0,14.2,2.0,95,67,35,30.22,29.62,4,0,10,0.13
2013-2-20,32.7,28.3,22.2,32.0,21.2,13.0,96,76,56,29.79,29.58,6,2,12,0.02
2013-2-21,25.0,21.5,15.7,19.0,13.1,10.0,84,70,56,30.35,29.79,10,3,16,0.00
2013-2-22,38.6,30.4,25.1,24.0,21.2,19.0,84,70,51,30.46,30.31,6,1,8,0.03
2013-2-23,34.8,31.7,26.9,31.0,27.4,23.0,96,84,72,30.31,29.98,3,0,11,0.00
2013-2-24,37.7,33.0,30.6,37.0,31.9,30.0,97,95,92,29.97,29.80,2,0,4,0.38
2013-2-25,37.5,32.0,28.9,34.0,30.8,28.0,97,95,82,30.27,29.95,2,0,5,0.13
2013-2-26,40.7,34.3,29.5,36.0,31.2,29.0,97,88,77,30.36,30.19,4,0,8,0.03
2013-2-27,35.3,33.3,31.6,33.0,30.4,28.0,96,89,78,30.20,29.68,6,1,11,0.25
2013-2-28,43.2,35.8,31.0,37.0,33.4,30.0,97,91,78,29.67,29.58,3,0,6,0.04
2013-3-1,38.6,32.3,27.0,32.0,28.2,26.0,98,85,63,29.75,29.59,6,1,10,0.01
2013-3-2,35.0,31.4,26.7,28.0,25.8,23.0,87,80,74,29.75,29.72,6,2,12,0.00
2013-3-3,36.1,29.8,25.0,28.0,24.2,21.0,89,79,70,29.73,29.64,7,1,11,0.03
2013-3-4,33.9,29.1,26.1,25.0,22.5,21.0,82,76,66,29.88,29.68,8,2,12,0.00
2013-3-5,42.2,32.3,25.8,29.0,25.1,21.0,89,76,58,30.12,29.88,8,1,11,0.00
2013-3-6,38.0,34.6,30.7,32.0,28.3,24.0,91,78,64,30.24,30.11,9,2,18,0.00
2013-3-7,38.3,34.2,30.9,28.0,25.3,23.0,86,70,61,30.21,30.13,7,2,11,0.00
2013-3-8,42.9,32.8,24.7,28.0,25.4,21.0,93,76,47,30.30,30.11,11,2,14,0.04
2013-3-9,55.4,33.6,18.4,29.0,22.6,17.0,95,70,24,30.38,30.27,5,0,7,0.00
2013-3-10,55.9,37.4,20.3,31.0,25.2,19.0,94,66,30,30.43,30.23,7,1,15,0.00
2013-3-11,46.0,40.7,32.8,38.0,32.6,28.0,86,73,59,30.28,30.09,8,1,11,0.00
2013-3-12,49.0,44.9,41.0,48.0,43.0,38.0,98,93,80,30.09,29.70,6,1,7,1.00
2013-3-13,44.3,38.2,27.0,40.0,31.4,25.0,95,78,52,29.83,29.75,9,1,10,0.00
2013-3-14,33.2,26.9,18.3,28.0,16.9,8.0,95,67,45,29.91,29.74,12,3,16,0.00
2013-3-15,36.8,25.5,13.8,28.0,14.0,6.0,91,64,35,29.94,29.63,7,2,15,0.00
2013-3-16,32.6,26.0,18.5,22.0,15.1,10.0,89,66,43,29.93,29.75,6,1,11,0.00
2013-3-17,29.2,23.2,15.5,16.0,8.7,2.0,83,56,35,30.38,29.93,10,2,22,0.00
2013-3-18,34.7,23.5,7.8,20.0,6.4,2.0,85,53,26,30.51,30.24,5,1,14,0.00
2013-3-19,32.8,28.8,26.5,29.0,25.8,21.0,93,88,74,30.24,29.77,7,1,10,0.00
2013-3-20,35.1,28.8,24.4,32.0,24.1,19.0,94,83,59,29.78,29.70,6,1,18,0.08
2013-3-21,40.8,27.8,13.9,22.0,15.5,10.0,91,64,31,29.80,29.64,6,1,10,0.15
2013-3-22,37.2,27.7,15.7,26.0,19.1,13.0,91,72,44,29.77,29.66,7,1,13,0.00
2013-3-23,39.8,32.1,22.9,26.0,21.1,18.0,87,65,44,29.82,29.69,18,2,18,0.00
2013-3-24,41.6,34.5,25.3,25.0,23.6,20.0,85,65,48,29.89,29.80,9,2,16,0.00
2013-3-25,44.6,32.9,20.9,29.0,24.1,19.0,93,73,45,29.84,29.58,6,1,11,0.00
2013-3-26,46.4,37.5,27.9,31.0,24.6,20.0,90,63,36,29.84,29.63,9,2,13,0.00
2013-3-27,49.2,37.5,23.1,33.0,26.8,21.0,92,69,41,29.95,29.82,11,2,15,0.00
2013-3-28,49.8,38.9,32.7,38.0,32.4,29.0,96,80,47,30.07,29.94,5,1,10,0.01
2013-3-29,50.3,39.1,29.1,37.0,31.7,27.0,94,76,49,30.10,30.03,9,1,12,0.00
2013-3-30,52.3,37.6,26.1,35.0,24.6,16.0,95,66,25,30.14,30.06,9,2,14,0.00
2013-3-31,57.2,40.0,21.2,38.0,24.8,18.0,92,61,27,30.16,29.79,12,2,19,0.07
2013-4-1,49.8,38.8,30.1,44.0,31.6,12.0,96,78,41,29.81,29.53,9,2,19,0.41
2013-4-2,35.9,30.0,24.2,14.0,11.1,8.0,57,46,33,29.91,29.80,11,3,26,0.00
2013-4-3,42.5,32.5,25.0,17.0,11.0,6.0,63,43,23,30.19,29.91,18,3,21,0.00
2013-4-4,53.7,38.5,24.2,23.0,16.3,10.0,70,44,22,30.31,29.98,7,2,15,0.00
2013-4-5,53.5,41.1,29.6,31.0,25.7,18.0,81,57,31,29.98,29.74,9,3,20,0.00
2013-4-6,42.2,31.0,24.3,17.0,9.0,2.0,60,42,19,30.35,29.96,11,3,21,0.00
2013-4-7,58.5,43.1,27.0,37.0,25.1,14.0,72,51,30,30.33,29.93,18,4,25,0.00
2013-4-8,60.0,47.5,36.7,39.0,34.2,30.0,90,63,34,30.14,29.94,8,2,12,0.00
2013-4-9,60.1,48.9,42.4,47.0,41.4,34.0,92,77,50,30.06,29.90,6,2,15,0.19
2013-4-10,51.2,45.7,41.7,47.0,43.5,40.0,97,92,82,30.02,29.91,3,0,5,0.77
2013-4-11,44.7,41.5,37.2,43.0,27.4,16.0,97,61,35,30.20,29.92,7,2,12,0.01
2013-4-12,37.5,33.4,30.9,31.0,27.1,19.0,91,78,48,30.21,29.90,6,1,17,0.05
2013-4-13,54.2,41.1,32.1,40.0,34.4,31.0,95,79,46,29.94,29.80,5,1,9,0.38
2013-4-14,48.6,40.5,30.1,38.0,32.8,28.0,95,76,50,30.26,29.93,8,1,14,0.01
2013-4-15,61.8,42.9,25.6,42.0,32.4,24.0,95,71,36,30.41,30.27,6,1,9,0.00
2013-4-16,61.6,50.3,36.6,53.0,42.7,32.0,95,76,54,30.36,29.99,16,2,19,0.07
2013-4-17,59.2,49.3,36.0,50.0,34.7,28.0,96,61,33,30.38,30.05,12,2,21,0.00
2013-4-18,62.4,47.1,28.7,41.0,31.8,26.0,92,60,37,30.46,30.09,17,2,24,0.00
2013-4-19,74.8,62.6,52.2,61.0,54.9,42.0,90,77,56,30.07,29.52,17,4,22,0.24
2013-4-20,54.7,46.0,36.6,52.0,32.6,18.0,93,63,36,30.27,29.64,9,2,26,0.13
2013-4-21,49.7,38.7,28.7,25.0,18.6,13.0,75,47,25,30.73,30.27,7,2,15,0.00
2013-4-22,56.3,39.8,23.9,29.0,22.1,17.0,85,55,25,30.80,30.61,9,1,18,0.00
2013-4-23,42.1,37.9,29.2,37.0,32.2,26.0,90,80,71,30.63,30.21,6,1,12,0.00
2013-4-24,77.4,56.8,39.7,48.0,41.8,36.0,89,62,28,30.20,29.71,12,1,16,0.00
2013-4-25,60.9,50.6,34.5,50.0,33.1,25.0,77,53,29,30.32,29.71,8,2,23,0.00
2013-4-26,57.3,44.6,27.8,37.0,30.8,25.0,90,62,36,30.46,30.32,4,1,10,0.00
2013-4-27,66.8,48.6,30.9,40.0,31.7,22.0,93,60,22,30.48,30.29,6,1,9,0.00
2013-4-28,74.2,53.4,30.4,39.0,34.1,28.0,90,54,23,30.37,30.15,5,1,12,0.00
2013-4-29,71.1,56.8,42.0,42.0,39.3,36.0,84,55,32,30.26,30.14,11,2,13,0.00
2013-4-30,75.3,62.1,51.2,46.0,36.2,28.0,59,40,26,30.33,30.23,5,1,10,0.00
2013-5-1,79.1,59.0,38.1,38.0,33.3,22.0,82,46,13,30.47,30.34,7,1,11,0.00
2013-5-2,82.7,59.1,39.2,45.0,39.1,27.0,87,52,22,30.49,30.30,9,1,17,0.00
2013-5-3,70.3,55.2,37.1,45.0,38.4,28.0,84,56,34,30.56,30.36,9,1,12,0.00
2013-5-4,76.8,58.6,39.0,48.0,40.4,31.0,94,58,24,30.39,30.20,8,1,11,0.00
2013-5-5,76.8,56.4,36.4,40.0,35.8,32.0,86,52,22,30.33,30.16,4,1,8,0.00
2013-5-6,80.5,58.2,37.1,44.0,34.6,14.0,92,52,8,30.27,30.07,9,1,11,0.00
2013-5-7,85.0,61.8,38.9,51.0,42.0,36.0,90,56,19,30.18,30.02,5,1,7,0.00
2013-5-8,76.0,61.4,47.6,62.0,55.4,46.0,95,82,48,30.20,30.04,4,1,15,0.43
2013-5-9,71.3,62.0,56.3,61.0,58.8,56.0,98,90,62,30.04,29.87,3,0,9,0.43
2013-5-10,77.1,63.0,53.6,62.0,57.6,53.0,98,84,53,29.98,29.86,6,1,7,0.00
2013-5-11,70.3,62.2,57.8,64.0,59.9,57.0,98,92,79,29.86,29.63,7,1,14,0.19
2013-5-12,65.5,56.1,43.1,58.0,44.5,25.0,98,69,33,29.80,29.59,8,2,18,0.00
2013-5-13,51.9,45.5,38.8,36.0,30.7,27.0,80,57,45,30.07,29.80,8,2,20,0.00
2013-5-14,57.5,45.9,33.4,38.0,31.9,26.0,94,63,32,30.12,30.00,9,1,19,0.00
2013-5-15,65.6,45.6,29.5,51.0,38.5,28.0,96,80,34,30.08,29.67,10,1,16,0.11
2013-5-16,77.1,59.7,45.7,55.0,43.1,35.0,98,64,23,29.86,29.62,15,3,23,0.01
2013-5-17,66.0,53.9,43.5,43.0,40.1,37.0,89,63,36,30.25,29.87,7,1,13,0.00
2013-5-18,75.1,55.6,35.8,46.0,40.1,35.0,96,64,25,30.34,30.21,5,1,10,0.00
2013-5-19,72.1,56.0,42.8,55.0,49.5,41.0,96,81,50,30.34,30.18,8,1,18,0.22
2013-5-20,72.6,62.9,55.3,64.0,59.4,54.0,97,88,71,30.17,29.97,4,1,6,0.02
2013-5-21,82.2,64.6,53.0,70.0,60.0,51.0,98,86,58,30.02,29.83,6,1,17,0.75
2013-5-22,74.0,59.9,52.1,66.0,57.0,50.0,97,90,74,29.96,29.83,5,1,11,0.38
2013-5-23,77.7,66.7,56.3,70.0,62.5,55.0,95,87,73,29.87,29.73,9,2,15,0.00
2013-5-24,67.3,56.0,45.7,64.0,53.2,43.0,97,90,81,29.93,29.62,7,2,15,0.45
2013-5-25,45.7,42.9,36.1,44.0,40.8,34.0,95,92,86,29.92,29.85,11,3,14,0.99
2013-5-26,52.4,44.9,37.3,42.0,39.1,36.0,94,81,63,30.11,29.81,8,2,17,0.10
2013-5-27,69.1,51.4,35.1,48.0,37.9,34.0,97,67,29,30.21,30.11,13,2,14,0.00
2013-5-28,76.4,56.2,36.0,50.0,42.4,35.0,96,67,26,30.29,30.12,8,1,9,0.00
2013-5-29,61.7,57.6,53.3,60.0,55.2,48.0,97,92,78,30.16,29.99,2,0,3,0.14
2013-5-30,88.8,71.8,59.4,69.0,63.2,59.0,98,78,44,30.08,29.99,5,1,14,0.00
2013-5-31,94.3,75.3,57.6,72.0,62.9,57.0,98,71,31,30.10,29.90,9,1,11,0.00
2013-6-1,93.1,76.7,60.8,70.0,65.3,60.0,97,72,33,29.95,29.80,6,1,14,0.00
2013-6-2,88.6,71.1,64.4,80.0,68.0,63.0,98,90,59,29.81,29.62,7,1,17,1.81
2013-6-3,78.6,67.6,53.2,66.0,58.1,49.0,99,75,42,29.85,29.75,9,1,15,0.00
2013-6-4,68.2,57.3,46.7,49.0,44.2,40.0,90,63,40,30.12,29.86,8,2,16,0.00
2013-6-5,74.6,58.2,43.0,48.0,43.8,39.0,96,65,28,30.22,30.09,6,1,12,0.00
2013-6-6,75.9,62.9,51.6,57.0,50.1,41.0,94,66,35,30.21,30.07,6,1,11,0.04
2013-6-7,58.1,53.5,52.0,57.0,52.2,49.0,97,95,90,30.10,29.90,5,0,7,0.89
2013-6-8,71.9,61.2,52.2,61.0,56.6,51.0,98,86,65,30.03,29.75,5,1,11,0.29
2013-6-9,78.8,65.5,54.7,60.0,55.7,52.0,97,74,41,30.19,30.03,9,1,13,0.00
2013-6-10,73.5,60.3,49.3,61.0,55.5,48.0,97,86,54,30.24,30.02,3,0,6,0.17
2013-6-11,60.3,57.1,54.6,57.0,55.5,53.0,97,94,87,30.02,29.60,3,0,10,1.09
2013-6-12,68.1,59.8,52.5,56.0,54.3,51.0,98,83,60,29.85,29.60,12,2,16,0.02
2013-6-13,65.1,56.4,50.5,58.0,53.8,49.0,97,91,74,29.85,29.72,4,1,6,0.17
2013-6-14,77.9,64.0,53.9,60.0,53.8,47.0,98,74,34,29.82,29.70,6,1,13,0.00
2013-6-15,76.7,62.8,48.3,55.0,48.4,41.0,96,65,30,29.95,29.82,7,1,11,0.00
2013-6-16,74.6,59.8,46.6,61.0,54.4,45.0,97,84,54,29.95,29.71,6,0,8,0.03
2013-6-17,79.6,65.0,53.6,66.0,58.9,53.0,99,83,48,29.92,29.79,5,1,15,0.17
2013-6-18,62.9,59.0,54.1,60.0,56.5,53.0,98,92,82,30.00,29.90,2,0,5,0.11
2013-6-19,72.6,59.7,48.3,54.0,48.1,42.0,98,71,34,30.20,29.98,4,1,8,0.00
2013-6-20,80.3,61.1,43.7,54.0,48.0,39.0,96,68,23,30.30,30.18,4,1,9,0.00
2013-6-21,85.1,66.2,48.1,60.0,53.3,47.0,96,68,34,30.27,30.19,4,1,10,0.00
2013-6-22,85.5,68.8,54.8,68.0,61.5,53.0,95,79,49,30.23,30.08,6,1,14,0.05
2013-6-23,89.0,71.9,64.3,77.0,68.4,64.0,98,89,63,30.13,29.93,5,1,12,0.57
2013-6-24,90.9,73.8,64.4,75.0,67.9,64.0,99,85,50,30.00,29.89,5,1,24,0.04
2013-6-25,90.4,74.2,65.7,74.0,68.4,65.0,98,85,46,29.94,29.74,10,1,13,0.82
2013-6-26,74.5,69.0,64.5,71.0,67.7,64.0,99,95,83,29.83,29.74,3,0,10,0.69
2013-6-27,82.8,71.4,64.5,72.0,67.6,64.0,99,88,67,29.83,29.73,4,1,9,0.00
2013-6-28,81.2,68.0,60.0,71.0,64.7,59.0,96,89,71,29.74,29.44,7,1,11,1.19
2013-6-29,84.3,73.5,66.2,71.0,67.0,63.0,98,82,55,29.67,29.49,8,1,13,0.12
2013-6-30,86.0,74.4,64.1,72.0,67.5,63.0,96,81,58,29.91,29.67,6,1,11,0.00
2013-7-1,79.4,71.5,67.5,71.0,68.9,67.0,98,91,75,30.05,29.92,3,0,7,1.12
2013-7-2,83.1,69.7,63.9,75.0,67.4,63.0,98,93,74,30.18,30.04,4,1,10,1.32
2013-7-3,89.5,74.1,63.3,75.0,68.8,63.0,98,85,56,30.18,30.08,5,1,10,0.05
2013-7-4,92.2,79.3,68.4,77.0,72.2,68.0,98,81,53,30.18,30.04,5,1,11,0.16
2013-7-5,93.4,78.6,70.4,78.0,72.8,70.0,98,85,49,30.14,30.02,6,1,14,0.19
2013-7-6,88.6,77.4,69.6,74.0,70.6,66.0,99,82,49,30.07,29.98,6,1,12,0.04
2013-7-7,88.5,75.1,64.5,76.0,69.5,64.0,97,84,58,30.03,29.89,3,0,4,0.04
2013-7-8,83.0,73.0,69.8,75.0,70.9,69.0,98,93,71,30.05,29.92,5,0,9,0.62
2013-7-9,84.5,74.2,67.3,73.0,68.8,66.0,97,84,65,30.10,30.01,5,1,9,0.00
2013-7-10,78.5,72.6,70.0,74.0,70.1,67.0,98,92,83,30.04,29.75,4,1,7,0.79
2013-7-11,82.7,73.2,63.0,73.0,67.7,61.0,99,84,54,30.00,29.74,5,1,14,0.00
2013-7-12,84.5,69.5,57.4,67.0,61.2,57.0,98,77,46,30.21,29.99,4,1,6,0.00
2013-7-13,79.9,70.8,59.8,69.0,64.7,59.0,97,82,61,30.31,30.21,3,0,6,0.00
2013-7-14,88.8,76.6,68.4,74.0,70.3,67.0,96,82,57,30.32,30.20,3,0,7,0.00
2013-7-15,91.8,77.7,67.1,75.0,68.8,66.0,98,78,43,30.23,30.10,6,1,8,0.00
2013-7-16,90.6,77.7,65.6,72.0,68.4,65.0,96,76,48,30.20,30.12,6,1,8,0.00
2013-7-17,95.4,79.7,65.0,76.0,70.1,64.0,97,75,43,30.19,29.96,5,1,9,0.00
2013-7-18,93.3,77.6,70.9,77.0,72.1,70.0,98,85,51,30.03,29.92,5,1,11,0.06
2013-7-19,95.0,81.4,70.5,77.0,72.6,68.0,97,77,50,29.94,29.66,12,2,14,0.06
2013-7-20,86.5,76.4,67.6,71.0,68.8,66.0,97,79,57,29.79,29.64,7,1,12,0.00
2013-7-21,81.9,70.1,62.2,65.0,63.2,61.0,97,81,50,30.01,29.80,5,1,7,0.00
2013-7-22,80.8,68.7,57.1,70.0,63.5,56.0,95,84,69,30.04,29.88,6,1,10,0.00
2013-7-23,78.1,68.4,64.8,71.0,66.3,64.0,98,93,75,29.87,29.55,4,1,5,1.30
2013-7-24,77.0,67.9,55.7,71.0,61.2,48.0,98,80,59,30.02,29.58,8,2,13,0.00
2013-7-25,74.7,61.3,48.3,61.0,53.1,47.0,95,76,53,30.12,30.03,6,1,7,0.00
2013-7-26,75.1,65.3,59.1,64.0,60.3,57.0,95,85,66,30.10,29.98,3,0,8,0.00
2013-7-27,84.9,68.0,55.6,68.0,60.8,55.0,98,81,44,30.07,29.95,3,1,6,0.00
2013-7-28,82.6,69.6,59.5,70.0,65.0,59.0,97,86,59,30.02,29.93,4,1,9,0.03
2013-7-29,83.2,71.9,60.6,69.0,64.9,59.0,97,81,46,30.07,29.96,4,1,11,0.03
2013-7-30,79.0,67.3,56.1,62.0,57.7,53.0,97,74,44,30.12,30.04,6,1,8,0.00
2013-7-31,82.4,67.6,54.5,64.0,58.8,53.0,97,77,39,30.16,30.02,5,1,6,0.00
2013-8-1,82.7,65.1,56.3,67.0,61.5,55.0,97,89,51,30.05,29.84,5,0,17,0.29
2013-8-2,81.5,70.7,61.2,68.0,61.2,54.0,97,75,40,29.85,29.77,8,1,11,0.01
2013-8-3,78.5,66.2,56.0,64.0,58.0,54.0,98,78,44,29.85,29.77,7,1,12,0.31
2013-8-4,73.7,63.2,54.1,62.0,56.1,52.0,97,79,55,29.93,29.81,8,1,17,0.02
2013-8-5,72.5,60.1,49.7,53.0,47.1,34.0,98,68,25,30.07,29.93,14,2,15,0.01
2013-8-6,79.3,61.5,45.9,58.0,50.9,45.0,97,73,37,30.16,30.08,6,1,7,0.00
2013-8-7,80.8,66.6,53.1,64.0,57.6,52.0,96,75,47,30.19,30.05,6,1,11,0.00
2013-8-8,85.2,74.4,67.7,72.0,67.4,61.0,91,79,62,30.06,29.95,6,1,11,0.00
2013-8-9,75.8,72.8,69.8,73.0,70.9,69.0,98,93,89,29.97,29.75,2,0,8,0.31
2013-8-10,78.0,69.4,56.3,69.0,58.7,51.0,99,73,39,30.04,29.78,8,1,11,0.01
2013-8-11,79.5,62.1,49.6,61.0,53.1,49.0,97,77,41,30.11,29.99,5,1,10,0.00
2013-8-12,80.7,66.3,53.2,63.0,57.7,52.0,97,77,44,30.04,29.91,6,1,9,0.00
2013-8-13,68.9,63.3,57.9,67.0,62.2,57.0,98,96,93,29.92,29.69,3,0,4,0.43
2013-8-14,71.7,62.1,51.6,64.0,55.2,50.0,98,80,57,29.97,29.68,11,1,13,0.00
2013-8-15,74.5,59.4,46.5,57.0,51.4,46.0,98,78,45,30.12,29.98,5,1,11,0.00
2013-8-16,79.5,62.6,49.1,62.0,54.7,48.0,98,79,43,30.21,30.11,6,1,9,0.00
2013-8-17,80.9,64.6,53.8,63.0,56.9,53.0,97,80,39,30.31,30.22,4,0,8,0.00
2013-8-18,78.9,64.0,53.6,66.0,58.7,53.0,97,84,54,30.30,30.09,3,0,5,0.00
2013-8-19,83.8,67.7,55.5,66.0,59.7,55.0,98,79,42,30.09,29.95,5,1,10,0.00
2013-8-20,86.1,70.0,58.0,68.0,61.6,57.0,98,78,40,30.11,30.01,5,1,8,0.00
2013-8-21,87.6,71.6,60.3,69.0,63.5,59.0,98,79,42,30.17,30.01,5,1,11,0.00
2013-8-22,88.8,73.2,59.5,70.0,64.1,59.0,98,77,40,30.03,29.79,7,1,9,0.14
2013-8-23,76.5,66.4,53.6,68.0,57.5,50.0,98,76,40,30.19,29.85,7,1,11,0.02
2013-8-24,79.7,60.1,47.2,56.0,50.7,46.0,97,76,37,30.36,30.19,5,0,8,0.00
2013-8-25,81.1,62.4,47.1,61.0,53.8,46.0,97,78,37,30.41,30.16,5,1,11,0.01
2013-8-26,78.6,69.5,61.9,71.0,65.5,60.0,97,88,70,30.18,29.88,4,0,10,0.16
2013-8-27,84.7,74.1,66.0,71.0,68.6,65.0,97,84,59,29.90,29.83,4,1,10,0.00
2013-8-28,88.2,73.1,66.2,71.0,67.6,65.0,98,84,49,30.00,29.83,5,1,7,0.06
2013-8-29,77.2,68.1,62.8,67.0,64.2,62.0,98,88,70,30.07,29.97,6,1,10,0.00
2013-8-30,87.0,72.6,63.9,70.0,65.8,62.0,95,81,49,30.02,29.79,3,1,9,0.00
2013-8-31,77.9,71.8,68.2,73.0,70.2,67.0,98,94,83,29.81,29.75,2,0,5,1.57
2013-9-1,84.4,73.9,67.4,73.0,69.8,67.0,99,88,61,29.87,29.78,3,0,5,0.02
2013-9-2,82.8,72.7,67.7,74.0,70.4,67.0,98,93,73,29.84,29.69,4,0,6,0.50
2013-9-3,76.1,68.6,63.4,67.0,63.7,58.0,98,85,61,29.81,29.70,4,1,8,0.00
2013-9-4,77.9,67.6,58.0,61.0,58.4,54.0,97,75,49,29.91,29.81,8,1,13,0.00
2013-9-5,66.2,59.3,44.8,61.0,49.6,39.0,96,74,37,30.19,29.87,8,2,15,0.13
2013-9-6,70.7,52.9,40.5,50.0,43.8,40.0,97,76,38,30.29,30.10,5,1,11,0.00
2013-9-7,69.5,57.0,46.0,59.0,51.8,45.0,97,84,54,30.10,29.86,5,0,9,0.01
2013-9-8,63.0,56.3,43.5,56.0,48.2,40.0,97,77,45,30.12,29.78,10,2,19,0.01
2013-9-9,71.5,56.1,39.8,53.0,47.5,39.0,97,76,46,30.26,30.10,7,1,9,0.00
2013-9-10,74.3,61.2,48.9,69.0,59.5,48.0,97,94,82,30.13,30.00,3,0,7,0.30
2013-9-11,94.3,77.5,67.2,78.0,71.2,66.0,98,84,49,30.05,29.89,6,1,11,0.53
2013-9-12,84.3,70.8,66.6,74.0,68.8,66.0,99,94,72,29.94,29.65,6,1,9,1.23
2013-9-13,66.7,62.4,56.2,66.0,60.7,52.0,99,94,84,29.82,29.61,5,1,9,0.36
2013-9-14,62.5,56.7,49.1,54.0,51.5,48.0,96,83,68,30.08,29.81,5,1,10,0.00
2013-9-15,71.9,56.4,47.1,55.0,50.2,46.0,98,82,46,30.18,30.04,4,1,10,0.00
2013-9-16,61.8,53.5,38.9,57.0,48.2,37.0,98,83,58,30.33,30.01,10,1,15,0.03
2013-9-17,66.6,47.4,34.3,48.0,40.8,33.0,98,81,47,30.49,30.33,6,0,6,0.00
2013-9-18,74.3,52.5,40.9,55.0,46.4,40.0,98,83,44,30.36,30.14,3,0,6,0.00
2013-9-19,77.9,55.5,44.4,60.0,49.4,43.0,98,84,37,30.19,30.04,3,0,5,0.00
2013-9-20,80.9,59.4,48.1,63.0,53.7,47.0,98,84,48,30.15,29.97,4,1,8,0.00
2013-9-21,76.1,62.6,49.4,64.0,57.3,49.0,99,85,48,30.00,29.64,7,2,19,0.03
2013-9-22,67.6,59.3,46.8,64.0,54.3,43.0,97,84,65,29.88,29.56,5,1,12,0.53
2013-9-23,53.4,47.5,41.4,45.0,41.4,39.0,92,80,64,30.05,29.88,6,1,12,0.00
2013-9-24,63.8,53.0,46.3,49.0,43.0,40.0,88,70,43,30.03,29.88,7,1,13,0.00
2013-9-25,51.9,47.1,42.7,49.0,45.5,42.0,98,94,88,29.95,29.93,1,0,3,0.00
2013-10-3,76.8,60.7,48.2,58.0,51.5,47.0,98,76,40,30.12,30.01,4,1,8,0.00
2013-10-4,66.2,54.6,44.7,57.0,51.1,44.0,98,88,67,30.14,30.05,2,0,4,0.00
2013-10-5,64.0,59.1,56.0,56.0,54.4,52.0,94,85,68,30.15,30.08,2,0,4,0.00
2013-10-6,57.7,52.4,49.2,55.0,48.0,44.0,97,85,67,30.24,30.14,7,0,10,0.24
2013-10-7,71.0,57.7,50.8,67.0,56.5,49.0,99,95,85,30.14,29.68,11,1,19,0.72
2013-10-8,61.9,49.9,37.5,49.0,42.0,36.0,99,78,39,30.43,29.93,6,1,12,0.00
2013-10-9,64.9,44.7,35.7,47.0,39.5,35.0,98,85,43,30.55,30.40,4,0,6,0.00
2013-10-10,62.8,47.0,38.5,51.0,42.9,38.0,98,87,48,30.41,30.23,4,0,5,0.00
2013-10-11,68.4,51.4,42.7,55.0,47.2,42.0,98,87,55,30.24,30.15,3,0,4,0.00
2013-10-12,61.5,50.0,41.0,55.0,47.4,41.0,98,91,78,30.43,30.23,4,1,9,0.01
2013-10-13,65.6,51.2,40.5,50.0,46.0,40.0,98,84,57,30.48,30.37,5,1,12,0.00
2013-10-14,63.1,53.4,41.1,54.0,49.2,40.0,97,86,69,30.40,30.24,3,0,6,0.00
2013-10-15,65.2,58.2,53.4,57.0,54.4,52.0,96,88,73,30.29,30.17,3,0,5,0.00
2013-10-16,66.6,55.8,48.3,55.0,51.5,48.0,98,86,65,30.16,29.88,6,1,8,0.00
2013-10-17,70.6,57.4,50.3,55.0,50.3,47.0,97,80,46,29.88,29.71,7,1,11,0.10
2013-10-18,61.3,53.2,42.5,55.0,48.3,39.0,99,84,62,29.91,29.61,6,1,14,0.41
2013-10-19,64.5,49.6,35.5,48.0,42.3,35.0,98,79,51,29.98,29.71,8,1,12,0.01
2013-10-20,57.4,49.5,36.2,49.0,39.6,34.0,96,71,44,30.02,29.66,11,1,13,0.02
2013-10-21,64.4,45.7,31.3,47.0,39.2,30.0,97,81,47,30.13,29.94,5,0,9,0.00
2013-10-22,56.5,48.0,34.7,50.0,42.7,33.0,93,82,65,29.93,29.73,6,1,12,0.01
2013-10-23,51.4,40.7,31.3,39.0,35.1,30.0,97,82,54,29.81,29.62,4,0,6,0.00
2013-10-24,48.9,40.6,29.4,37.0,32.6,27.0,94,75,51,29.90,29.68,12,2,19,0.03
2013-10-25,45.7,37.0,29.3,37.0,29.9,26.0,98,78,47,30.15,29.90,6,1,13,0.01
2013-10-26,48.3,39.2,27.3,36.0,31.2,26.0,94,75,47,30.16,29.85,8,1,12,0.00
2013-10-27,52.6,41.1,28.9,40.0,32.9,27.0,93,75,43,30.07,29.80,11,1,13,0.00
2013-10-28,51.4,36.9,26.0,38.0,29.9,23.0,94,77,53,30.41,30.07,10,1,15,0.00
2013-10-29,47.0,30.1,19.9,28.0,22.2,18.0,95,76,32,30.52,30.39,4,0,6,0.00
2013-10-30,47.5,34.3,25.8,36.0,29.0,22.0,95,82,60,30.41,30.22,5,0,9,0.00
2013-10-31,57.0,41.2,29.1,56.0,40.0,28.0,97,95,91,30.28,29.71,6,1,12,0.21
2013-11-1,68.0,60.9,52.8,62.0,53.6,43.0,96,79,50,29.70,29.35,10,3,19,0.72
2013-11-2,60.5,48.4,36.3,48.0,42.0,33.0,98,80,57,29.85,29.61,5,1,13,0.00
2013-11-3,41.5,35.4,25.6,34.0,21.4,13.0,77,58,37,30.49,29.86,9,3,15,0.00
2013-11-4,41.5,27.7,19.2,21.0,17.1,-99.9,91,69,37,30.75,30.50,8,-10,9,0.00
2013-11-5,48.7,32.6,21.5,30.0,25.6,19.0,94,78,48,30.75,30.51,7,1,12,0.00
2013-11-6,59.3,46.0,30.6,46.0,38.9,29.0,93,77,59,30.51,29.96,9,2,13,0.00
2013-11-7,53.6,48.7,37.4,53.0,44.1,25.0,96,84,62,29.96,29.71,6,1,13,0.12
2013-11-8,40.1,33.4,25.0,35.0,27.9,24.0,95,81,61,30.11,29.86,9,1,10,0.01
2013-11-9,42.5,36.7,30.2,32.0,24.8,22.0,84,64,45,30.22,30.01,4,1,10,0.00
2013-11-10,45.9,37.8,31.8,42.0,36.0,31.0,97,93,83,30.01,29.73,5,1,12,0.14
2013-11-11,45.4,39.7,34.8,35.0,30.5,27.0,89,70,51,30.11,29.88,16,2,17,0.01
2013-11-12,43.1,30.5,26.8,36.0,20.7,16.0,89,67,55,30.25,29.88,9,2,16,0.04
2013-11-13,32.3,25.6,20.3,19.0,12.9,-99.9,80,61,39,30.35,30.12,7,-9,13,0.00
2013-11-14,45.8,31.8,23.8,30.0,25.0,20.0,93,77,53,30.12,30.06,8,1,13,0.00
2013-11-15,53.4,32.2,22.5,29.0,25.1,21.0,95,78,34,30.24,30.11,2,0,5,0.00
2013-11-16,59.0,37.7,27.7,33.0,29.0,26.0,93,74,33,30.34,30.23,3,0,5,0.00
2013-11-17,47.3,36.6,26.1,47.0,35.4,25.0,98,95,89,30.34,29.83,2,0,5,0.12
2013-11-18,59.6,51.5,40.1,54.0,44.4,31.0,99,79,48,29.81,29.47,11,2,22,0.49
2013-11-19,44.1,34.4,29.2,33.0,20.9,16.0,73,58,52,30.36,29.66,9,4,18,0.00
2013-11-20,37.9,27.7,19.5,19.0,17.3,15.0,87,67,40,30.70,30.37,8,1,12,0.00
2013-11-21,42.5,27.5,15.1,23.0,18.4,14.0,94,72,35,30.71,30.40,4,0,7,0.00
2013-11-22,34.8,32.7,29.0,34.0,30.0,23.0,97,89,72,30.40,29.83,1,0,2,0.10
2013-11-23,40.2,32.6,22.4,40.0,25.8,17.0,99,78,44,29.98,29.79,6,2,12,0.07
2013-11-24,22.9,18.5,13.7,17.0,5.0,-3.0,77,57,42,30.26,29.84,11,3,25,0.00
2013-11-25,27.8,18.3,4.8,17.0,5.1,-3.0,82,59,31,30.43,30.24,5,0,9,0.00
2013-11-26,34.6,30.4,27.0,31.0,26.0,17.0,95,84,63,30.33,30.09,5,0,7,0.01
2013-11-27,40.5,35.7,32.3,40.0,34.9,31.0,98,97,93,30.07,29.33,4,0,8,1.37
2013-11-28,33.0,23.2,11.6,31.0,15.0,9.0,92,72,50,30.46,29.50,9,2,20,0.00
2013-11-29,26.4,15.0,7.4,13.0,8.2,5.0,92,77,42,30.82,30.47,8,1,11,0.00
2013-11-30,28.2,17.3,4.1,17.0,9.4,2.0,90,73,49,30.88,30.44,5,1,10,0.00
2013-12-1,36.9,31.4,27.7,30.0,25.8,15.0,93,80,59,30.43,30.08,5,0,9,0.00
2013-12-2,37.8,33.5,30.7,33.0,31.2,29.0,95,91,84,30.08,29.94,3,0,4,0.00
2013-12-3,36.9,33.2,30.3,34.0,31.7,29.0,96,94,88,30.00,29.93,2,0,4,0.00
2013-12-4,40.8,31.0,24.5,30.0,26.4,23.0,96,84,60,30.23,30.00,3,0,6,0.00
2013-12-5,37.5,33.3,24.3,37.0,31.8,23.0,97,93,86,30.24,29.91,1,0,5,0.01
2013-12-6,42.1,37.9,33.2,41.0,35.9,31.0,98,92,75,30.17,29.90,2,0,6,0.38
2013-12-7,33.2,30.5,23.4,31.0,22.1,16.0,94,72,52,30.48,30.12,5,1,15,0.00
2013-12-8,28.2,25.1,20.9,20.0,14.7,12.0,89,65,52,30.62,30.48,4,1,7,0.00
2013-12-9,29.2,26.9,23.5,28.0,22.4,12.0,96,84,56,30.51,29.91,3,0,9,0.00
2013-12-10,34.4,28.0,21.5,30.0,21.6,11.0,97,78,55,29.97,29.80,5,1,11,0.00
2013-12-11,28.8,24.0,18.9,21.0,14.5,11.0,88,68,50,30.18,29.98,10,2,15,0.00
2013-12-12,19.6,13.6,4.7,15.0,4.8,-1.0,91,70,41,30.33,30.03,5,1,9,0.00
2013-12-13,21.4,14.8,0.5,15.0,7.9,-4.0,84,74,64,30.48,29.96,6,1,12,0.00
2013-12-14,11.2,5.5,-1.8,9.0,-1.9,-6.0,89,72,51,30.68,30.25,3,0,5,0.00
2013-12-15,26.6,20.0,11.3,23.0,17.0,9.0,93,88,76,30.25,29.56,0,0,2,0.00
2013-12-16,23.1,16.2,0.9,18.0,6.5,-6.0,92,67,45,30.28,29.74,6,1,20,0.00
2013-12-17,9.6,0.0,-13.0,7.0,-4.1,-17.0,88,82,74,30.36,30.09,2,0,5,0.00
2013-12-18,27.0,15.7,6.7,19.0,12.0,4.0,92,85,68,30.10,29.97,2,0,5,0.00
2013-12-19,36.4,27.4,17.6,29.0,23.8,16.0,95,87,64,30.10,29.95,7,0,8,0.00
2013-12-20,40.7,33.6,29.6,34.0,31.5,28.0,96,92,73,30.12,29.92,1,0,4,0.01
2013-12-21,46.1,37.1,33.8,40.0,35.5,33.0,98,94,80,29.92,29.85,3,0,5,0.17
2013-12-22,42.0,37.4,34.5,42.0,36.8,34.0,98,97,96,30.00,29.70,4,0,8,0.08
2013-12-23,36.1,34.6,32.7,36.0,34.1,28.0,98,98,83,30.17,29.99,2,0,9,0.13
2013-12-24,32.8,25.8,12.4,28.0,16.7,6.0,81,69,50,30.30,30.10,8,1,11,0.00
2013-12-25,17.1,11.6,5.2,10.0,2.7,-2.0,78,68,53,30.58,30.30,5,1,10,0.00
2013-12-26,27.1,21.1,17.5,23.0,16.7,7.0,94,83,62,30.49,30.14,4,0,7,0.00
2013-12-27,33.0,23.2,14.6,25.0,18.3,13.0,95,83,57,30.27,30.20,4,0,14,0.01
2013-12-28,34.5,26.5,15.0,30.0,23.6,13.0,94,89,77,30.20,30.00,2,0,3,0.00
2013-12-29,33.4,28.4,21.8,32.0,27.2,21.0,97,95,92,30.04,29.62,1,0,1,0.00
2013-12-30,34.5,24.4,4.7,33.0,20.3,0.0,98,84,67,30.25,29.61,0,0,1,0.01
2013-12-31,14.3,6.8,0.4,7.0,1.1,-4.0,89,78,57,30.25,30.08,1,0,4,0.00
2014-1-1,20.6,9.5,-0.6,13.0,2.2,-99.9,90,76,52,30.46,30.19,5,-10,13,0.00
2014-1-2,6.3,4.0,1.3,3.0,0.2,-3.0,88,84,76,30.46,30.00,4,0,8,0.00